createdAt,value
2018-04-29T00:01:29.930Z,4.93
2018-04-29T00:03:56.148Z,7.32
2018-04-29T00:06:23.412Z,7.32
2018-04-29T00:08:49.571Z,5.50
2018-04-29T00:11:15.816Z,8.83
2018-04-29T00:13:42.008Z,11.38
2018-04-29T00:16:09.283Z,6.33
2018-04-29T00:18:35.457Z,7.37
2018-04-29T00:21:03.342Z,13.77
2018-04-29T00:23:29.498Z,18.93
2018-04-29T00:25:55.690Z,14.87
2018-04-29T00:28:21.890Z,12.07
2018-04-29T00:30:48.050Z,6.57
2018-04-29T00:33:15.314Z,10.93
2018-04-29T00:35:41.491Z,9.00
2018-04-29T00:38:08.966Z,11.27
2018-04-29T00:40:35.216Z,7.87
2018-04-29T00:43:01.390Z,8.18
2018-04-29T00:45:27.569Z,6.18
2018-04-29T00:47:53.735Z,12.35
2018-04-29T00:50:19.934Z,6.30
2018-04-29T00:52:46.087Z,7.47
2018-04-29T00:55:12.295Z,9.60
2018-04-29T00:57:38.477Z,5.82
2018-04-29T01:00:04.660Z,6.85
2018-04-29T01:02:31.967Z,5.80
2018-04-29T01:04:58.118Z,5.93
2018-04-29T01:07:25.378Z,4.80
2018-04-29T01:09:52.960Z,7.70
2018-04-29T01:12:20.859Z,4.93
2018-04-29T01:14:49.562Z,9.93
2018-04-29T01:17:18.247Z,9.77
2018-04-29T01:19:47.811Z,7.93
2018-04-29T01:22:16.466Z,4.17
2018-04-29T01:24:42.638Z,9.90
2018-04-29T01:27:08.870Z,3.43
2018-04-29T01:29:36.154Z,5.73
2018-04-29T01:32:02.338Z,5.75
2018-04-29T01:34:30.213Z,5.47
2018-04-29T01:36:57.297Z,3.57
2018-04-29T01:39:23.567Z,5.70
2018-04-29T01:41:49.750Z,6.27
2018-04-29T01:44:17.011Z,4.37
2018-04-29T01:46:44.059Z,6.70
2018-04-29T01:49:10.257Z,4.47
2018-04-29T01:51:36.444Z,3.50
2018-04-29T01:54:02.922Z,4.07
2018-04-29T01:56:29.078Z,3.00
2018-04-29T01:58:56.638Z,5.18
2018-04-29T02:01:23.000Z,7.43
2018-04-29T02:03:49.148Z,3.17
2018-04-29T02:06:15.506Z,4.40
2018-04-29T02:08:41.682Z,7.47
2018-04-29T02:11:08.937Z,10.13
2018-04-29T02:13:35.098Z,6.17
2018-04-29T02:16:01.271Z,4.10
2018-04-29T02:18:27.424Z,5.37
2018-04-29T02:20:54.597Z,3.30
2018-04-29T02:23:22.510Z,4.10
2018-04-29T02:25:48.673Z,11.30
2018-04-29T02:28:14.842Z,4.67
2018-04-29T02:30:41.052Z,4.50
2018-04-29T02:33:07.214Z,4.43
2018-04-29T02:35:33.393Z,4.37
2018-04-29T02:37:59.586Z,4.60
2018-04-29T02:40:25.745Z,2.87
2018-04-29T02:42:51.906Z,2.97
2018-04-29T02:45:18.150Z,2.77
2018-04-29T02:47:45.428Z,6.87
2018-04-29T02:50:11.571Z,2.30
2018-04-29T02:52:37.722Z,4.00
2018-04-29T02:55:04.049Z,2.90
2018-04-29T02:57:30.203Z,3.67
2018-04-29T02:59:56.358Z,3.37
2018-04-29T03:02:23.649Z,5.27
2018-04-29T03:04:49.805Z,9.83
2018-04-29T03:07:17.094Z,3.97
2018-04-29T03:09:43.246Z,4.30
2018-04-29T03:12:09.406Z,4.90
2018-04-29T03:14:35.570Z,3.93
2018-04-29T03:17:01.734Z,5.30
2018-04-29T03:19:27.895Z,5.60
2018-04-29T03:21:54.051Z,5.23
2018-04-29T03:24:20.200Z,5.23
2018-04-29T03:26:46.395Z,6.70
2018-04-29T03:29:12.554Z,3.13
2018-04-29T03:31:39.850Z,3.90
2018-04-29T03:34:06.018Z,8.43
2018-04-29T03:36:32.176Z,2.60
2018-04-29T03:38:58.346Z,4.80
2018-04-29T03:41:24.492Z,4.43
2018-04-29T03:43:50.652Z,4.43
2018-04-29T03:46:16.848Z,4.87
2018-04-29T03:48:43.066Z,8.13
2018-04-29T03:51:09.217Z,3.73
2018-04-29T03:53:35.467Z,5.50
2018-04-29T03:56:01.688Z,6.33
2018-04-29T03:58:41.143Z,9.10
2018-04-29T04:01:20.539Z,5.27
2018-04-29T04:03:54.768Z,8.47
2018-04-29T04:06:22.032Z,7.17
2018-04-29T04:08:48.198Z,7.60
2018-04-29T04:11:14.481Z,5.80
2018-04-29T04:13:40.647Z,5.27
2018-04-29T04:16:07.921Z,4.87
2018-04-29T04:18:34.098Z,8.93
2018-04-29T04:21:01.364Z,11.13
2018-04-29T04:23:27.535Z,5.70
2018-04-29T04:25:53.702Z,5.83
2018-04-29T04:28:19.907Z,7.57
2018-04-29T04:30:46.050Z,7.10
2018-04-29T04:33:12.239Z,7.70
2018-04-29T04:35:38.394Z,10.77
2018-04-29T04:38:04.655Z,6.73
2018-04-29T04:40:30.882Z,6.90
2018-04-29T04:42:57.131Z,7.30
2018-04-29T04:45:23.245Z,10.13
2018-04-29T04:47:49.418Z,7.27
2018-04-29T04:50:15.595Z,9.73
2018-04-29T04:52:43.553Z,13.77
2018-04-29T04:55:10.838Z,9.70
2018-04-29T04:57:37.010Z,11.67
2018-04-29T05:00:03.220Z,7.57
2018-04-29T05:02:31.106Z,12.03
2018-04-29T05:04:57.257Z,10.90
2018-04-29T05:07:23.425Z,8.83
2018-04-29T05:09:49.609Z,11.07
2018-04-29T05:12:16.858Z,10.43
2018-04-29T05:14:43.030Z,15.87
2018-04-29T05:17:09.243Z,6.97
2018-04-29T05:19:35.492Z,10.93
2018-04-29T05:22:01.654Z,7.07
2018-04-29T05:24:27.926Z,11.17
2018-04-29T05:26:54.090Z,10.40
2018-04-29T05:29:20.614Z,18.80
2018-04-29T05:31:46.819Z,10.83
2018-04-29T05:34:12.968Z,13.17
2018-04-29T05:36:40.237Z,8.07
2018-04-29T05:39:06.427Z,11.93
2018-04-29T05:41:34.313Z,13.13
2018-04-29T05:44:00.515Z,10.40
2018-04-29T05:46:26.686Z,7.57
2018-04-29T05:48:52.942Z,11.13
2018-04-29T05:51:19.160Z,13.13
2018-04-29T05:53:45.331Z,11.07
2018-04-29T05:56:11.497Z,9.00
2018-04-29T05:58:37.701Z,9.90
2018-04-29T06:01:04.075Z,13.77
2018-04-29T06:03:31.337Z,11.17
2018-04-29T06:05:57.518Z,13.57
2018-04-29T06:08:23.675Z,11.57
2018-04-29T06:10:49.843Z,13.13
2018-04-29T06:13:16.018Z,11.83
2018-04-29T06:15:42.160Z,13.50
2018-04-29T06:18:08.360Z,16.63
2018-04-29T06:20:34.567Z,15.67
2018-04-29T06:23:00.707Z,14.20
2018-04-29T06:25:29.438Z,19.27
2018-04-29T06:27:55.621Z,11.67
2018-04-29T06:30:21.772Z,15.47
2018-04-29T06:32:47.928Z,14.23
2018-04-29T06:35:15.305Z,18.13
2018-04-29T06:37:41.458Z,11.00
2018-04-29T06:40:07.622Z,13.20
2018-04-29T06:42:33.830Z,13.43
2018-04-29T06:44:59.982Z,14.90
2018-04-29T06:47:26.146Z,11.17
2018-04-29T06:49:52.326Z,11.13
2018-04-29T06:52:18.604Z,12.23
2018-04-29T06:54:44.786Z,10.13
2018-04-29T06:57:11.057Z,17.23
2018-04-29T06:59:37.213Z,9.80
2018-04-29T07:02:03.397Z,10.65
2018-04-29T07:04:29.735Z,8.23
2018-04-29T07:06:56.999Z,8.35
2018-04-29T07:09:23.182Z,12.75
2018-04-29T07:11:50.591Z,6.57
2018-04-29T07:14:16.774Z,9.32
2018-04-29T07:16:42.967Z,12.10
2018-04-29T07:19:09.154Z,13.02
2018-04-29T07:21:36.439Z,8.43
2018-04-29T07:24:02.626Z,10.80
2018-04-29T07:26:28.821Z,11.63
2018-04-29T07:28:56.105Z,9.65
2018-04-29T07:31:22.266Z,9.87
2018-04-29T07:33:49.550Z,11.80
2018-04-29T07:36:15.727Z,15.30
2018-04-29T07:38:43.634Z,12.17
2018-04-29T07:41:09.891Z,15.35
2018-04-29T07:43:36.251Z,12.20
2018-04-29T07:46:02.436Z,14.43
2018-04-29T07:48:28.622Z,18.73
2018-04-29T07:50:54.801Z,14.05
2018-04-29T07:53:20.968Z,14.85
2018-04-29T07:55:48.872Z,14.82
2018-04-29T07:58:16.039Z,15.85
2018-04-29T08:00:43.497Z,10.95
2018-04-29T08:03:09.622Z,11.27
2018-04-29T08:05:37.035Z,10.13
2018-04-29T08:08:04.311Z,10.63
2018-04-29T08:10:30.528Z,11.02
2018-04-29T08:12:56.715Z,15.15
2018-04-29T08:15:22.921Z,17.20
2018-04-29T08:17:51.128Z,11.80
2018-04-29T08:20:17.818Z,13.27
2018-04-29T08:22:45.159Z,15.85
2018-04-29T08:25:11.805Z,14.27
2018-04-29T08:27:38.039Z,14.93
2018-04-29T08:30:04.395Z,9.82
2018-04-29T08:32:32.314Z,9.30
2018-04-29T08:34:59.656Z,12.50
2018-04-29T08:37:25.867Z,13.85
2018-04-29T08:39:52.063Z,12.85
2018-04-29T08:42:18.246Z,12.00
2018-04-29T08:44:44.419Z,10.93
2018-04-29T08:47:11.138Z,10.52
2018-04-29T08:49:37.306Z,14.73
2018-04-29T08:52:03.551Z,11.52
2018-04-29T08:54:29.734Z,9.02
2018-04-29T08:56:55.943Z,10.82
2018-04-29T08:59:22.171Z,11.00
2018-04-29T09:01:48.435Z,8.35
2018-04-29T09:04:14.634Z,10.02
2018-04-29T09:06:41.167Z,11.40
2018-04-29T09:09:07.339Z,11.73
2018-04-29T09:11:33.531Z,9.13
2018-04-29T09:13:59.735Z,11.32
2018-04-29T09:16:27.645Z,13.43
2018-04-29T09:18:53.935Z,9.90
2018-04-29T09:21:20.101Z,6.30
2018-04-29T09:23:47.453Z,13.48
2018-04-29T09:26:13.618Z,6.85
2018-04-29T09:28:39.790Z,11.93
2018-04-29T09:31:05.957Z,15.50
2018-04-29T09:33:32.123Z,10.88
2018-04-29T09:35:58.289Z,14.63
2018-04-29T09:38:24.554Z,11.93
2018-04-29T09:40:50.715Z,13.23
2018-04-29T09:43:16.940Z,13.40
2018-04-29T09:45:43.093Z,8.75
2018-04-29T09:48:09.276Z,12.90
2018-04-29T09:50:36.562Z,11.27
2018-04-29T09:53:02.707Z,15.68
2018-04-29T09:55:28.971Z,8.43
2018-04-29T09:57:55.149Z,14.40
2018-04-29T10:00:26.542Z,11.40
2018-04-29T10:02:52.810Z,7.90
2018-04-29T10:05:19.031Z,8.00
2018-04-29T10:07:45.199Z,9.02
2018-04-29T10:10:11.361Z,7.93
2018-04-29T10:12:37.554Z,7.95
2018-04-29T10:15:04.842Z,7.10
2018-04-29T10:17:30.998Z,9.38
2018-04-29T10:19:58.299Z,5.97
2018-04-29T10:22:24.458Z,7.87
2018-04-29T10:24:51.742Z,9.27
2018-04-29T10:27:17.910Z,5.57
2018-04-29T10:29:45.193Z,7.25
2018-04-29T10:32:11.466Z,5.53
2018-04-29T10:34:37.711Z,3.80
2018-04-29T10:37:03.891Z,6.37
2018-04-29T10:39:31.194Z,4.25
2018-04-29T10:41:57.390Z,5.00
2018-04-29T10:44:23.550Z,4.87
2018-04-29T10:46:50.502Z,9.13
2018-04-29T10:49:16.664Z,4.70
2018-04-29T10:51:42.837Z,3.60
2018-04-29T10:54:09.058Z,3.15
2018-04-29T10:56:35.220Z,4.28
2018-04-29T10:59:02.163Z,4.28
2018-04-29T11:01:29.067Z,5.65
2018-04-29T11:03:55.221Z,3.05
2018-04-29T11:06:21.407Z,5.57
2018-04-29T11:08:47.588Z,5.10
2018-04-29T11:11:13.819Z,3.17
2018-04-29T11:13:40.258Z,2.95
2018-04-29T11:16:07.540Z,2.70
2018-04-29T11:18:33.710Z,2.95
2018-04-29T11:21:00.606Z,3.28
2018-04-29T11:23:26.780Z,2.40
2018-04-29T11:25:53.031Z,2.75
2018-04-29T11:28:19.202Z,5.12
2018-04-29T11:30:45.461Z,2.67
2018-04-29T11:33:11.642Z,4.35
2018-04-29T11:35:37.888Z,2.00
2018-04-29T11:38:04.055Z,4.50
2018-04-29T11:40:30.636Z,2.33
2018-04-29T11:42:56.761Z,2.28
2018-04-29T11:45:23.268Z,2.28
2018-04-29T11:47:49.534Z,3.45
2018-04-29T11:50:15.701Z,4.45
2018-04-29T11:52:41.955Z,1.12
2018-04-29T11:55:08.154Z,2.62
2018-04-29T11:57:34.475Z,1.27
2018-04-29T12:00:00.631Z,1.75
2018-04-29T12:02:27.087Z,2.92
2018-04-29T12:04:53.190Z,1.75
2018-04-29T12:07:19.348Z,1.83
2018-04-29T12:09:45.538Z,4.75
2018-04-29T12:12:12.439Z,3.62
2018-04-29T12:14:38.620Z,1.67
2018-04-29T12:17:05.011Z,1.87
2018-04-29T12:19:31.167Z,1.55
2018-04-29T12:21:57.382Z,2.00
2018-04-29T12:24:23.570Z,1.62
2018-04-29T12:26:49.925Z,3.00
2018-04-29T12:29:16.118Z,2.28
2018-04-29T12:31:42.293Z,2.08
2018-04-29T12:34:08.503Z,1.87
2018-04-29T12:36:34.796Z,3.00
2018-04-29T12:39:01.765Z,3.12
2018-04-29T12:41:27.943Z,4.25
2018-04-29T12:43:54.857Z,2.10
2018-04-29T12:46:21.047Z,2.65
2018-04-29T12:48:47.217Z,3.47
2018-04-29T12:51:13.525Z,1.85
2018-04-29T12:53:39.802Z,4.75
2018-04-29T12:56:05.991Z,2.92
2018-04-29T12:58:32.260Z,2.35
2018-04-29T13:00:58.481Z,3.08
2018-04-29T13:03:25.378Z,1.73
2018-04-29T13:05:51.554Z,1.50
2018-04-29T13:08:17.718Z,2.28
2018-04-29T13:10:43.886Z,2.58
2018-04-29T13:13:10.806Z,2.10
2018-04-29T13:15:37.173Z,1.75
2018-04-29T13:18:03.357Z,1.60
2018-04-29T13:20:30.642Z,5.10
2018-04-29T13:22:56.894Z,2.35
2018-04-29T13:25:24.161Z,2.20
2018-04-29T13:27:50.357Z,1.02
2018-04-29T13:30:17.282Z,2.85
2018-04-29T13:32:44.222Z,2.30
2018-04-29T13:35:12.063Z,4.45
2018-04-29T13:37:38.956Z,3.92
2018-04-29T13:40:05.167Z,3.45
2018-04-29T13:42:31.653Z,4.50
2018-04-29T13:44:57.854Z,2.40
2018-04-29T13:47:24.134Z,6.10
2018-04-29T13:49:50.711Z,5.20
2018-04-29T13:52:16.950Z,2.53
2018-04-29T13:54:43.075Z,2.33
2018-04-29T13:57:09.280Z,7.03
2018-04-29T13:59:35.454Z,7.15
2018-04-29T14:02:01.646Z,3.12
2018-04-29T14:04:29.002Z,1.83
2018-04-29T14:06:55.817Z,3.70
2018-04-29T14:09:22.663Z,2.58
2018-04-29T14:11:48.867Z,3.10
2018-04-29T14:14:15.019Z,4.18
2018-04-29T14:16:41.282Z,2.37
2018-04-29T14:19:07.461Z,3.28
2018-04-29T14:21:33.625Z,2.42
2018-04-29T14:23:59.868Z,5.10
2018-04-29T14:26:26.074Z,6.22
2018-04-29T14:28:52.254Z,2.30
2018-04-29T14:31:18.471Z,4.70
2018-04-29T14:33:44.792Z,3.58
2018-04-29T14:36:10.966Z,2.58
2018-04-29T14:38:37.130Z,2.87
2018-04-29T14:41:03.359Z,2.25
2018-04-29T14:43:29.622Z,4.28
2018-04-29T14:45:56.919Z,3.85
2018-04-29T14:48:23.098Z,3.80
2018-04-29T14:50:49.263Z,2.03
2018-04-29T14:53:15.431Z,3.03
2018-04-29T14:55:41.618Z,4.87
2018-04-29T14:58:08.522Z,3.80
2018-04-29T15:00:34.715Z,5.22
2018-04-29T15:03:00.873Z,3.45
2018-04-29T15:05:27.810Z,3.67
2018-04-29T15:07:54.739Z,5.62
2018-04-29T15:10:21.693Z,7.22
2018-04-29T15:12:47.842Z,4.30
2018-04-29T15:15:14.037Z,5.80
2018-04-29T15:17:40.199Z,5.90
2018-04-29T15:20:07.474Z,5.00
2018-04-29T15:22:33.666Z,4.37
2018-04-29T15:24:59.830Z,2.45
2018-04-29T15:27:26.080Z,8.27
2018-04-29T15:29:52.278Z,4.82
2018-04-29T15:32:18.450Z,6.30
2018-04-29T15:34:44.610Z,4.60
2018-04-29T15:37:12.022Z,4.78
2018-04-29T15:39:38.203Z,5.57
2018-04-29T15:42:04.357Z,5.85
2018-04-29T15:44:30.551Z,3.12
2018-04-29T15:46:56.718Z,5.20
2018-04-29T15:49:22.889Z,5.07
2018-04-29T15:51:49.066Z,5.12
2018-04-29T15:54:15.229Z,7.03
2018-04-29T15:56:41.406Z,3.80
2018-04-29T15:59:07.606Z,2.55
2018-04-29T16:01:33.758Z,5.00
2018-04-29T16:03:59.918Z,4.18
2018-04-29T16:06:26.083Z,2.45
2018-04-29T16:08:52.262Z,3.67
2018-04-29T16:11:18.448Z,3.60
2018-04-29T16:13:44.728Z,4.45
2018-04-29T16:16:10.936Z,7.22
2018-04-29T16:18:37.119Z,4.32
2018-04-29T16:21:03.301Z,3.42
2018-04-29T16:23:29.504Z,5.78
2018-04-29T16:25:55.691Z,4.95
2018-04-29T16:28:21.863Z,9.40
2018-04-29T16:30:48.022Z,4.62
2018-04-29T16:33:14.219Z,11.95
2018-04-29T16:35:40.413Z,6.55
2018-04-29T16:38:06.648Z,4.10
2018-04-29T16:40:32.754Z,5.97
2018-04-29T16:42:58.943Z,7.82
2018-04-29T16:45:25.282Z,5.22
2018-04-29T16:47:51.482Z,6.70
2018-04-29T16:50:17.658Z,4.12
2018-04-29T16:52:43.811Z,8.23
2018-04-29T16:55:10.015Z,8.80
2018-04-29T16:57:36.202Z,6.20
2018-04-29T17:00:02.383Z,9.27
2018-04-29T17:02:28.573Z,8.60
2018-04-29T17:04:54.761Z,4.10
2018-04-29T17:07:21.677Z,7.55
2018-04-29T17:09:48.974Z,5.60
2018-04-29T17:12:15.137Z,4.90
2018-04-29T17:14:41.327Z,5.50
2018-04-29T17:17:07.573Z,6.35
2018-04-29T17:19:33.730Z,6.50
2018-04-29T17:21:59.897Z,7.28
2018-04-29T17:24:26.078Z,6.35
2018-04-29T17:26:53.411Z,3.67
2018-04-29T17:29:21.448Z,5.95
2018-04-29T17:31:48.695Z,4.47
2018-04-29T17:34:14.871Z,10.98
2018-04-29T17:36:41.026Z,6.22
2018-04-29T17:39:07.318Z,7.62
2018-04-29T17:41:33.484Z,9.32
2018-04-29T17:43:59.695Z,7.75
2018-04-29T17:46:25.951Z,5.37
2018-04-29T17:48:52.157Z,4.80
2018-04-29T17:51:18.322Z,17.20
2018-04-29T17:53:45.608Z,11.48
2018-04-29T17:56:11.835Z,9.75
2018-04-29T17:58:38.367Z,5.07
2018-04-29T18:01:04.666Z,5.03
2018-04-29T18:03:30.838Z,5.65
2018-04-29T18:05:57.007Z,4.50
2018-04-29T18:08:23.230Z,2.72
2018-04-29T18:10:50.514Z,7.87
2018-04-29T18:13:16.699Z,3.00
2018-04-29T18:15:44.176Z,2.95
2018-04-29T18:18:11.041Z,3.72
2018-04-29T18:20:37.242Z,7.07
2018-04-29T18:23:03.601Z,9.35
2018-04-29T18:25:29.865Z,11.88
2018-04-29T18:27:56.090Z,5.57
2018-04-29T18:30:22.383Z,5.45
2018-04-29T18:32:48.583Z,5.22
2018-04-29T18:35:15.682Z,3.60
2018-04-29T18:37:42.032Z,8.57
2018-04-29T18:40:08.342Z,6.68
2018-04-29T18:42:34.747Z,9.25
2018-04-29T18:45:00.942Z,7.35
2018-04-29T18:47:27.212Z,5.90
2018-04-29T18:49:53.663Z,5.28
2018-04-29T18:52:19.862Z,7.90
2018-04-29T18:54:46.019Z,6.80
2018-04-29T18:57:12.333Z,7.80
2018-04-29T18:59:39.473Z,7.15
2018-04-29T19:02:05.804Z,5.97
2018-04-29T19:04:32.131Z,6.70
2018-04-29T19:06:58.599Z,8.82
2018-04-29T19:09:26.094Z,5.68
2018-04-29T19:11:52.313Z,5.57
2018-04-29T19:14:18.495Z,4.45
2018-04-29T19:16:44.689Z,6.62
2018-04-29T19:19:11.186Z,12.18
2018-04-29T19:21:38.864Z,6.53
2018-04-29T19:24:05.412Z,8.45
2018-04-29T19:26:31.834Z,6.20
2018-04-29T19:28:58.118Z,3.60
2018-04-29T19:31:24.582Z,3.40
2018-04-29T19:33:50.776Z,3.65
2018-04-29T19:36:17.063Z,9.77
2018-04-29T19:38:43.486Z,5.50
2018-04-29T19:41:09.855Z,3.78
2018-04-29T19:43:36.050Z,8.30
2018-04-29T19:46:02.262Z,7.37
2018-04-29T19:48:29.475Z,6.25
2018-04-29T19:50:55.722Z,6.55
2018-04-29T19:53:23.051Z,4.32
2018-04-29T19:55:49.551Z,5.82
2018-04-29T19:58:15.789Z,12.07
2018-04-29T20:00:41.995Z,4.82
2018-04-29T20:03:09.107Z,4.28
2018-04-29T20:05:36.568Z,8.48
2018-04-29T20:08:04.011Z,3.90
2018-04-29T20:10:31.955Z,7.82
2018-04-29T20:13:02.155Z,6.18
2018-04-29T20:15:34.370Z,7.75
2018-04-29T20:18:11.795Z,6.18
2018-04-29T20:20:38.006Z,5.78
2018-04-29T20:23:07.782Z,7.10
2018-04-29T20:25:35.378Z,4.78
2018-04-29T20:28:03.723Z,7.62
2018-04-29T20:30:30.594Z,5.35
2018-04-29T20:32:56.766Z,7.97
2018-04-29T20:35:22.978Z,3.95
2018-04-29T20:37:49.355Z,8.02
2018-04-29T20:40:15.527Z,3.75
2018-04-29T20:42:43.328Z,4.82
2018-04-29T20:45:09.826Z,7.43
2018-04-29T20:47:36.363Z,5.53
2018-04-29T20:50:02.825Z,4.82
2018-04-29T20:52:30.343Z,7.68
2018-04-29T20:54:58.331Z,6.28
2018-04-29T20:57:26.399Z,5.60
2018-04-29T20:59:53.674Z,5.80
2018-04-29T21:02:19.850Z,5.68
2018-04-29T21:04:46.057Z,4.62
2018-04-29T21:07:13.671Z,9.50
2018-04-29T21:09:40.101Z,5.80
2018-04-29T21:12:08.203Z,5.85
2018-04-29T21:14:35.056Z,4.28
2018-04-29T21:17:01.339Z,4.87
2018-04-29T21:19:27.856Z,4.97
2018-04-29T21:21:54.046Z,9.15
2018-04-29T21:24:22.247Z,9.13
2018-04-29T21:26:48.583Z,5.87
2018-04-29T21:29:14.961Z,4.97
2018-04-29T21:31:41.215Z,5.35
2018-04-29T21:34:07.564Z,7.30
2018-04-29T21:36:33.801Z,5.15
2018-04-29T21:39:00.011Z,7.43
2018-04-29T21:41:27.426Z,3.83
2018-04-29T21:43:53.765Z,7.18
2018-04-29T21:46:19.975Z,6.07
2018-04-29T21:48:46.226Z,4.43
2018-04-29T21:51:12.442Z,10.90
2018-04-29T21:53:38.636Z,8.77
2018-04-29T21:56:04.857Z,5.87
2018-04-29T21:58:31.065Z,7.70
2018-04-29T22:00:58.646Z,4.50
2018-04-29T22:03:24.908Z,5.57
2018-04-29T22:05:51.118Z,7.07
2018-04-29T22:08:18.810Z,8.07
2018-04-29T22:10:45.046Z,9.55
2018-04-29T22:13:11.269Z,5.72
2018-04-29T22:15:37.473Z,7.07
2018-04-29T22:18:03.674Z,6.75
2018-04-29T22:20:29.875Z,7.12
2018-04-29T22:22:56.051Z,7.03
2018-04-29T22:25:22.274Z,10.00
2018-04-29T22:27:48.513Z,4.18
2018-04-29T22:30:14.723Z,10.82
2018-04-29T22:32:40.940Z,6.78
2018-04-29T22:35:07.295Z,7.03
2018-04-29T22:37:33.521Z,9.50
2018-04-29T22:39:59.721Z,7.85
2018-04-29T22:42:25.882Z,10.15
2018-04-29T22:44:52.070Z,9.13
2018-04-29T22:47:18.255Z,12.25
2018-04-29T22:49:44.410Z,9.55
2018-04-29T22:52:11.828Z,8.23
2018-04-29T22:54:39.371Z,10.40
2018-04-29T22:57:05.831Z,9.15
2018-04-29T22:59:32.022Z,4.47
2018-04-29T23:01:59.331Z,8.38
2018-04-29T23:04:25.857Z,8.70
2018-04-29T23:06:52.147Z,8.27
2018-04-29T23:09:18.335Z,4.85
2018-04-29T23:11:45.106Z,12.75
2018-04-29T23:14:11.277Z,9.65
2018-04-29T23:16:37.816Z,8.05
2018-04-29T23:19:05.796Z,6.43
2018-04-29T23:21:32.307Z,10.50
2018-04-29T23:23:58.514Z,7.15
2018-04-29T23:26:24.872Z,11.25
2018-04-29T23:28:51.665Z,4.45
2018-04-29T23:31:17.863Z,7.47
2018-04-29T23:33:44.022Z,8.38
2018-04-29T23:36:10.184Z,11.35
2018-04-29T23:38:36.771Z,7.62
2018-04-29T23:41:03.187Z,6.18
2018-04-29T23:43:29.412Z,10.98
2018-04-29T23:45:55.610Z,7.57
2018-04-29T23:48:22.883Z,6.10
2018-04-29T23:50:49.343Z,8.43
2018-04-29T23:53:16.550Z,8.48
2018-04-29T23:55:42.714Z,12.00
2018-04-29T23:58:09.814Z,7.62
